Date,TemperatureHighF,TemperatureAvgF,TemperatureLowF,DewpointHighF,DewpointAvgF,DewpointLowF,HumidityHigh,HumidityAvg,HumidityLow,PressureMaxIn,PressureMinIn,WindSpeedMaxMPH,WindSpeedAvgMPH,GustSpeedMaxMPH,PrecipitationSumIn
2013-1-1,50.4,44.0,37.0,39.6,30.4,21.8,85,60,37,30.24,30.19,0,0,5,0.00
2013-1-2,54.7,47.5,40.1,31.6,24.8,12.7,61,42,24,30.22,30.12,0,0,6,0.00
2013-1-3,56.5,47.1,42.5,39.5,31.1,19.6,67,54,34,30.25,30.13,0,0,2,0.00
2013-1-4,56.9,48.6,44.3,33.9,30.3,25.1,60,49,37,30.27,30.16,0,0,5,0.00
2013-1-5,49.6,46.4,41.8,44.8,40.9,33.4,93,82,59,30.23,30.05,1,0,7,0.32
2013-1-6,46.7,43.5,40.8,42.9,40.4,38.9,94,89,77,30.18,30.04,0,0,1,0.04
2013-1-7,49.4,44.2,42.3,42.0,39.3,37.5,90,83,71,30.25,30.16,0,0,1,0.00
2013-1-8,62.1,52.0,46.8,46.1,41.5,-99.9,86,69,52,30.22,30.11,0,0,1,0.00
2013-1-9,52.2,45.9,40.6,46.1,38.9,32.1,93,77,54,30.12,29.97,0,0,1,0.00
2013-1-10,40.9,38.9,37.3,32.5,31.4,30.4,81,74,71,30.11,30.06,0,0,3,0.00
2013-1-11,48.9,41.1,37.0,37.6,31.7,27.6,89,70,55,30.24,30.11,1,0,10,0.00
2013-1-12,47.0,40.1,34.4,33.5,25.8,18.1,86,58,36,30.23,30.13,0,0,2,0.00
2013-1-13,50.7,39.5,32.9,28.3,18.2,10.4,56,43,26,30.25,30.17,0,0,13,0.00
2013-1-14,42.9,35.8,33.4,14.9,12.5,10.1,45,38,28,30.37,30.20,0,0,3,0.00
2013-1-15,52.0,43.8,39.9,27.3,23.3,16.9,60,45,30,30.46,30.38,0,0,2,0.00
2013-1-16,56.3,47.5,40.3,33.0,26.6,18.1,62,45,28,30.41,30.23,0,0,8,0.00
2013-1-17,62.1,52.5,44.1,35.2,24.4,15.9,60,35,22,30.24,30.13,1,0,11,0.00
2013-1-18,63.2,54.4,48.5,33.6,24.6,15.0,56,32,21,30.19,30.11,1,0,12,0.00
2013-1-19,61.5,55.2,51.1,31.3,21.3,15.3,35,27,21,30.21,30.12,1,0,11,0.00
2013-1-20,62.4,56.0,50.7,27.6,20.0,8.8,36,25,15,30.19,30.09,1,0,8,0.00
2013-1-21,64.7,55.7,47.6,35.6,24.8,8.7,53,31,15,30.14,30.06,1,0,10,0.00
2013-1-22,65.2,55.3,49.5,41.8,34.6,22.9,58,46,25,30.07,29.97,1,0,11,0.00
2013-1-23,59.9,54.1,47.0,49.1,38.3,20.9,92,61,23,30.06,29.92,2,0,11,0.20
2013-1-24,56.6,51.9,47.4,49.4,47.3,45.2,92,85,74,30.17,30.03,0,0,8,0.00
2013-1-25,65.0,55.9,51.3,53.7,49.8,47.9,90,80,63,30.16,30.02,0,0,1,0.00
2013-1-26,55.1,49.3,43.1,49.2,41.2,33.5,93,75,47,30.06,29.96,4,0,14,0.00
2013-1-27,53.9,45.0,38.5,37.8,34.2,27.5,82,67,36,30.15,30.05,3,0,11,0.00
2013-1-28,56.5,46.3,40.5,40.7,36.3,31.9,83,69,44,30.27,30.15,2,0,14,0.00
2013-1-29,56.9,48.9,42.3,41.1,37.8,34.3,76,66,43,30.34,30.25,1,0,10,0.00
2013-1-30,61.5,54.4,48.0,44.4,40.3,36.1,73,59,45,30.32,30.24,0,0,2,0.00
2013-1-31,65.5,55.1,47.0,45.0,41.1,36.8,76,60,46,30.25,30.15,1,0,7,0.00